Onalaska, WA

9:50 AM PST on February 11, 2016 (GMT -0800)
Onalaska | | Change Station
CLOSE
Current Station
Personal Weather Station
Location: Onalaska, WA
Elevation: 577 ft
Nearby Weather Stations

Elev 577 ft 46.58 °N, 122.68 °W | Updated 36 seconds ago

Rain
Rain
50.5 °F
Feels Like 50.5 °F
N
2.2
Wind Variable Wind from ESE

Today
High -- | Low -- °F
--% Chance of Precip.
Yesterday
High -- | Low -- °F
Precip. -- in
Pressure 30.15 in
Visibility 2.0 miles
Clouds Mostly Cloudy 400 ft
Overcast 7500 ft
Dew Point 49 °F
Humidity 94%
Rainfall 0.09 in
Snow Depth Not available.
7:21 AM 5:29 PM
Waxing Crescent, 13% visible
METAR KCLS 111735Z AUTO 00000KT 2SM BR BKN004 OVC075 09/09 A3015 RMK AO2
Pressure 30.15 in
Visibility 2.0 miles
Clouds Mostly Cloudy 400 ft
Overcast 7500 ft
Dew Point 49 °F
Humidity 94%
Rainfall 0.09 in
Snow Depth Not available.
7:21 AM 5:29 PM
Waxing Crescent, 13% visible
METAR KCLS 111735Z AUTO 00000KT 2SM BR BKN004 OVC075 09/09 A3015 RMK AO2

10-Day Weather Forecast

Almanac

Astronomy

Feb. 11, 2016 Rise Set
Actual Time
Civil Twilight
Nautical Twilight
Astronomical Twilight
Moon
Length of Visible Light
Length of Day
Tomorrow will be .
, % of the Moon is Illuminated

Today's Extremes

State Highs State Lows

Community

WunderPhotos

Upload Photos

1,892,113 photos uploaded!

WunderBlog® & News

Nearby

Air Quality

  Air Quality AQ Index Pollutant
Not available.

Snow Depth

Station Depth Elevation

Earthquake Activity

City Distance Mag. Time & Date
Minimum magnitude displayed is 2.5.

Coastal Water Temperatures

Place Temperature

Stations

Nearby Weather Stations

Station Location Temp. Windchill Dew Point Humidity Wind Precip. Elev Updated Type
                   

Watches & Warnings

There are currently no watches in effect.